KJVL

Southern Wisconsin Regional Airport

Janesville, Wisconsin, USA
METAR KJVL 221445Z 29004KT 10SM SCT250 07/01 A3005
Observed Flight Rules
Oct-22 @ 14:45 UTC (28 minutes ago) Visual Flight Rules
Wind Visibility Clouds
290° at 4 knots 10 miles
  • Scattered at 25,000' AGL
Temperatures Readings
Current 7°C / 45°F
Dewpoint 1°C / 34°F
Humidity 66%
Altimeter 30.05" Hg
Pressure 1018 hPa
Elevation 246
METAR KJVL 221445Z 29004KT 10SM SCT250 07/01 A3005
Observed Flight Rules
Oct-22 @ 14:45 UTC
(28 minutes ago)
VFR
Wind Visibility
290° at 4 knots 10 miles
Clouds
  • Scattered at 25,000' AGL
Temperature Dewpoint
7°C / 45°F 1°C / 34°F
Humidity Altimeter Pressure
66% 30.05" Hg 1018 hPa